sensor_id;sensor_type;location;lat;lon;timestamp;pressure;altitude;pressure_sealevel;temperature;humidity
7026;BME280;3554;42.132;24.786;2022-09-09T00:02:28;99534.47;;;19.60;100.00
7026;BME280;3554;42.132;24.786;2022-09-09T00:04:59;99533.03;;;19.56;100.00
7026;BME280;3554;42.132;24.786;2022-09-09T00:07:35;99529.84;;;19.51;100.00
7026;BME280;3554;42.132;24.786;2022-09-09T00:10:16;99534.88;;;19.43;100.00
7026;BME280;3554;42.132;24.786;2022-09-09T00:12:51;99528.78;;;19.54;100.00
7026;BME280;3554;42.132;24.786;2022-09-09T00:15:24;99534.09;;;19.54;100.00
7026;BME280;3554;42.132;24.786;2022-09-09T00:17:57;99522.72;;;19.52;100.00
7026;BME280;3554;42.132;24.786;2022-09-09T00:20:32;99529.50;;;19.56;100.00
7026;BME280;3554;42.132;24.786;2022-09-09T00:23:09;99537.28;;;19.70;100.00
7026;BME280;3554;42.132;24.786;2022-09-09T00:25:44;99520.13;;;19.63;100.00
7026;BME280;3554;42.132;24.786;2022-09-09T00:28:18;99539.09;;;19.46;100.00
7026;BME280;3554;42.132;24.786;2022-09-09T00:30:46;99538.78;;;19.50;100.00
7026;BME280;3554;42.132;24.786;2022-09-09T00:33:16;99535.03;;;19.53;100.00
7026;BME280;3554;42.132;24.786;2022-09-09T00:35:45;99553.47;;;19.67;100.00
7026;BME280;3554;42.132;24.786;2022-09-09T00:38:14;99547.63;;;19.62;100.00
7026;BME280;3554;42.132;24.786;2022-09-09T00:40:49;99562.13;;;19.69;100.00
7026;BME280;3554;42.132;24.786;2022-09-09T00:43:28;99549.97;;;19.66;100.00
7026;BME280;3554;42.132;24.786;2022-09-09T00:46:10;99536.19;;;19.61;100.00
7026;BME280;3554;42.132;24.786;2022-09-09T00:48:47;99549.47;;;19.61;100.00
7026;BME280;3554;42.132;24.786;2022-09-09T00:51:25;99549.16;;;19.53;100.00
7026;BME280;3554;42.132;24.786;2022-09-09T00:54:07;99538.78;;;19.50;100.00
7026;BME280;3554;42.132;24.786;2022-09-09T00:56:47;99553.22;;;19.46;100.00
7026;BME280;3554;42.132;24.786;2022-09-09T00:59:26;99503.66;;;19.10;100.00
7026;BME280;3554;42.132;24.786;2022-09-09T01:01:54;99552.09;;;19.38;100.00
7026;BME280;3554;42.132;24.786;2022-09-09T01:04:28;99553.91;;;19.37;100.00
7026;BME280;3554;42.132;24.786;2022-09-09T01:07:03;99551.06;;;19.28;100.00
7026;BME280;3554;42.132;24.786;2022-09-09T01:09:45;99553.94;;;19.24;100.00
7026;BME280;3554;42.132;24.786;2022-09-09T01:12:24;99563.47;;;19.27;100.00
7026;BME280;3554;42.132;24.786;2022-09-09T01:14:58;99560.13;;;19.12;100.00
7026;BME280;3554;42.132;24.786;2022-09-09T01:17:31;99540.47;;;18.91;100.00
7026;BME280;3554;42.132;24.786;2022-09-09T01:20:06;99548.03;;;19.08;100.00
7026;BME280;3554;42.132;24.786;2022-09-09T01:22:41;99557.28;;;19.03;100.00
7026;BME280;3554;42.132;24.786;2022-09-09T01:25:20;99551.94;;;18.92;100.00
7026;BME280;3554;42.132;24.786;2022-09-09T01:27:52;99539.06;;;18.98;100.00
7026;BME280;3554;42.132;24.786;2022-09-09T01:30:21;99548.66;;;19.12;100.00
7026;BME280;3554;42.132;24.786;2022-09-09T01:32:50;99542.53;;;19.11;100.00
7026;BME280;3554;42.132;24.786;2022-09-09T01:35:39;99548.66;;;19.12;100.00
7026;BME280;3554;42.132;24.786;2022-09-09T01:38:06;99549.75;;;19.09;100.00
7026;BME280;3554;42.132;24.786;2022-09-09T01:40:33;99549.41;;;19.14;100.00
7026;BME280;3554;42.132;24.786;2022-09-09T01:43:02;99548.03;;;19.08;100.00
7026;BME280;3554;42.132;24.786;2022-09-09T01:45:30;99538.50;;;19.06;100.00
7026;BME280;3554;42.132;24.786;2022-09-09T01:47:57;99539.97;;;19.10;100.00
7026;BME280;3554;42.132;24.786;2022-09-09T01:50:24;99541.44;;;19.14;100.00
7026;BME280;3554;42.132;24.786;2022-09-09T01:52:55;99532.72;;;19.12;100.00
7026;BME280;3554;42.132;24.786;2022-09-09T01:55:28;99536.56;;;19.20;100.00
7026;BME280;3554;42.132;24.786;2022-09-09T01:58:05;99539.09;;;19.22;100.00
7026;BME280;3554;42.132;24.786;2022-09-09T02:00:40;99535.69;;;19.20;100.00
7026;BME280;3554;42.132;24.786;2022-09-09T02:03:15;99541.75;;;19.22;100.00
7026;BME280;3554;42.132;24.786;2022-09-09T02:05:50;99542.81;;;19.19;100.00
7026;BME280;3554;42.132;24.786;2022-09-09T02:08:23;99508.72;;;18.90;100.00
7026;BME280;3554;42.132;24.786;2022-09-09T02:10:56;99530.88;;;19.01;100.00
7026;BME280;3554;42.132;24.786;2022-09-09T02:13:29;99539.41;;;18.94;100.00
7026;BME280;3554;42.132;24.786;2022-09-09T02:15:58;99533.97;;;18.95;100.00
7026;BME280;3554;42.132;24.786;2022-09-09T02:18:30;99528.47;;;18.86;100.00
7026;BME280;3554;42.132;24.786;2022-09-09T02:21:00;99528.53;;;18.61;100.00
7026;BME280;3554;42.132;24.786;2022-09-09T02:23:29;99523.09;;;18.62;100.00
7026;BME280;3554;42.132;24.786;2022-09-09T02:25:58;99518.44;;;18.53;100.00
7026;BME280;3554;42.132;24.786;2022-09-09T02:28:28;99519.97;;;18.45;100.00
7026;BME280;3554;42.132;24.786;2022-09-09T02:30:56;99505.94;;;18.43;100.00
7026;BME280;3554;42.132;24.786;2022-09-09T02:33:26;99521.19;;;18.39;100.00
7026;BME280;3554;42.132;24.786;2022-09-09T02:35:55;99508.78;;;18.40;100.00
7026;BME280;3554;42.132;24.786;2022-09-09T02:38:28;99510.50;;;18.41;100.00
7026;BME280;3554;42.132;24.786;2022-09-09T02:40:57;99508.16;;;18.36;100.00
7026;BME280;3554;42.132;24.786;2022-09-09T02:43:24;99510.94;;;18.35;100.00
7026;BME280;3554;42.132;24.786;2022-09-09T02:45:57;99517.78;;;18.37;100.00
7026;BME280;3554;42.132;24.786;2022-09-09T02:48:30;99515.25;;;18.36;100.00
7026;BME280;3554;42.132;24.786;2022-09-09T02:51:03;99507.94;;;18.39;100.00
7026;BME280;3554;42.132;24.786;2022-09-09T02:53:40;99520.66;;;18.34;100.00
7026;BME280;3554;42.132;24.786;2022-09-09T02:56:14;99516.75;;;18.27;100.00
7026;BME280;3554;42.132;24.786;2022-09-09T02:58:42;99522.69;;;18.31;100.00
7026;BME280;3554;42.132;24.786;2022-09-09T03:01:10;99520.25;;;18.28;100.00
7026;BME280;3554;42.132;24.786;2022-09-09T03:03:37;99523.97;;;18.25;100.00
7026;BME280;3554;42.132;24.786;2022-09-09T03:06:06;99529.03;;;18.28;100.00
7026;BME280;3554;42.132;24.786;2022-09-09T03:08:33;99531.69;;;18.28;100.00
7026;BME280;3554;42.132;24.786;2022-09-09T03:11:01;99514.63;;;18.32;100.00
7026;BME280;3554;42.132;24.786;2022-09-09T03:13:27;99512.44;;;18.26;100.00
7026;BME280;3554;42.132;24.786;2022-09-09T03:15:54;99532.13;;;18.35;100.00
7026;BME280;3554;42.132;24.786;2022-09-09T03:18:22;99532.28;;;18.46;100.00
7026;BME280;3554;42.132;24.786;2022-09-09T03:20:50;99524.09;;;18.49;100.00
7026;BME280;3554;42.132;24.786;2022-09-09T03:23:19;99531.81;;;18.52;100.00
7026;BME280;3554;42.132;24.786;2022-09-09T03:25:47;99535.56;;;18.49;100.00
7026;BME280;3554;42.132;24.786;2022-09-09T03:28:14;99530.13;;;18.51;100.00
7026;BME280;3554;42.132;24.786;2022-09-09T03:30:41;99542.75;;;18.47;100.00
7026;BME280;3554;42.132;24.786;2022-09-09T03:33:08;99543.06;;;18.43;100.00
7026;BME280;3554;42.132;24.786;2022-09-09T03:35:36;99542.25;;;18.42;100.00
7026;BME280;3554;42.132;24.786;2022-09-09T03:38:03;99541.56;;;18.39;100.00
7026;BME280;3554;42.132;24.786;2022-09-09T03:40:29;99543.19;;;18.41;100.00
7026;BME280;3554;42.132;24.786;2022-09-09T03:42:57;99543.59;;;18.35;100.00
7026;BME280;3554;42.132;24.786;2022-09-09T03:45:24;99543.59;;;18.35;100.00
7026;BME280;3554;42.132;24.786;2022-09-09T03:47:51;99540.72;;;18.26;100.00
7026;BME280;3554;42.132;24.786;2022-09-09T03:50:18;99542.28;;;18.28;100.00
7026;BME280;3554;42.132;24.786;2022-09-09T03:52:46;99540.38;;;18.30;100.00
7026;BME280;3554;42.132;24.786;2022-09-09T03:55:14;99537.00;;;18.28;100.00
7026;BME280;3554;42.132;24.786;2022-09-09T03:57:40;99540.09;;;18.35;100.00
7026;BME280;3554;42.132;24.786;2022-09-09T04:00:08;99547.63;;;18.41;100.00
7026;BME280;3554;42.132;24.786;2022-09-09T04:02:35;99538.28;;;18.35;100.00
7026;BME280;3554;42.132;24.786;2022-09-09T04:05:03;99528.22;;;18.40;100.00
7026;BME280;3554;42.132;24.786;2022-09-09T04:07:30;99527.78;;;18.46;100.00
7026;BME280;3554;42.132;24.786;2022-09-09T04:09:59;99521.19;;;18.39;100.00
7026;BME280;3554;42.132;24.786;2022-09-09T04:12:26;99534.28;;;18.42;100.00
7026;BME280;3554;42.132;24.786;2022-09-09T04:14:52;99542.53;;;18.50;100.00
7026;BME280;3554;42.132;24.786;2022-09-09T04:17:19;99549.31;;;18.54;100.00
7026;BME280;3554;42.132;24.786;2022-09-09T04:19:46;99555.50;;;18.42;100.00
7026;BME280;3554;42.132;24.786;2022-09-09T04:22:13;99561.81;;;18.40;100.00
7026;BME280;3554;42.132;24.786;2022-09-09T04:24:39;99551.47;;;18.49;100.00
7026;BME280;3554;42.132;24.786;2022-09-09T04:27:08;99558.94;;;18.80;100.00
7026;BME280;3554;42.132;24.786;2022-09-09T04:29:34;99562.72;;;19.01;100.00
7026;BME280;3554;42.132;24.786;2022-09-09T04:32:01;99564.44;;;19.26;100.00
7026;BME280;3554;42.132;24.786;2022-09-09T04:34:28;99567.25;;;19.48;100.00
7026;BME280;3554;42.132;24.786;2022-09-09T04:36:55;99577.88;;;19.72;100.00
7026;BME280;3554;42.132;24.786;2022-09-09T04:39:22;99572.50;;;19.84;100.00
7026;BME280;3554;42.132;24.786;2022-09-09T04:41:49;99580.91;;;20.13;100.00
7026;BME280;3554;42.132;24.786;2022-09-09T04:44:17;99586.78;;;20.29;100.00
7026;BME280;3554;42.132;24.786;2022-09-09T04:46:44;99581.59;;;20.39;100.00
7026;BME280;3554;42.132;24.786;2022-09-09T04:49:11;99601.13;;;20.61;100.00
7026;BME280;3554;42.132;24.786;2022-09-09T04:51:38;99607.88;;;20.76;100.00
7026;BME280;3554;42.132;24.786;2022-09-09T04:54:04;99618.31;;;21.01;100.00
7026;BME280;3554;42.132;24.786;2022-09-09T04:56:32;99612.25;;;21.21;100.00
7026;BME280;3554;42.132;24.786;2022-09-09T04:58:59;99639.31;;;21.49;100.00
7026;BME280;3554;42.132;24.786;2022-09-09T05:01:29;99640.03;;;21.62;100.00
7026;BME280;3554;42.132;24.786;2022-09-09T05:03:57;99640.78;;;21.53;100.00
7026;BME280;3554;42.132;24.786;2022-09-09T05:06:24;99643.88;;;21.69;100.00
7026;BME280;3554;42.132;24.786;2022-09-09T05:08:51;99635.88;;;21.69;100.00
7026;BME280;3554;42.132;24.786;2022-09-09T05:11:20;99628.50;;;21.61;100.00
7026;BME280;3554;42.132;24.786;2022-09-09T05:13:48;99580.72;;;21.49;100.00
7026;BME280;3554;42.132;24.786;2022-09-09T05:16:17;99629.63;;;22.01;100.00
7026;BME280;3554;42.132;24.786;2022-09-09T05:18:46;99623.00;;;22.16;100.00
7026;BME280;3554;42.132;24.786;2022-09-09T05:21:14;99627.34;;;21.97;100.00
7026;BME280;3554;42.132;24.786;2022-09-09T05:23:42;99611.81;;;22.02;100.00
7026;BME280;3554;42.132;24.786;2022-09-09T05:26:12;99627.25;;;22.19;100.00
7026;BME280;3554;42.132;24.786;2022-09-09T05:28:39;99629.00;;;22.09;100.00
7026;BME280;3554;42.132;24.786;2022-09-09T05:31:08;99617.78;;;21.41;100.00
7026;BME280;3554;42.132;24.786;2022-09-09T05:33:38;99611.38;;;21.43;100.00
7026;BME280;3554;42.132;24.786;2022-09-09T05:36:09;99618.16;;;21.36;100.00
7026;BME280;3554;42.132;24.786;2022-09-09T05:38:39;99625.97;;;21.60;100.00
7026;BME280;3554;42.132;24.786;2022-09-09T05:41:06;99627.25;;;22.19;100.00
7026;BME280;3554;42.132;24.786;2022-09-09T05:43:34;99627.41;;;21.86;100.00
7026;BME280;3554;42.132;24.786;2022-09-09T05:46:04;99625.22;;;22.11;100.00
7026;BME280;3554;42.132;24.786;2022-09-09T05:48:32;99616.25;;;22.33;100.00
7026;BME280;3554;42.132;24.786;2022-09-09T05:51:00;99608.84;;;22.57;100.00
7026;BME280;3554;42.132;24.786;2022-09-09T05:53:30;99632.44;;;22.41;100.00
7026;BME280;3554;42.132;24.786;2022-09-09T05:56:01;99631.56;;;22.72;100.00
7026;BME280;3554;42.132;24.786;2022-09-09T05:58:29;99629.13;;;22.90;100.00
7026;BME280;3554;42.132;24.786;2022-09-09T06:01:01;99628.41;;;22.88;100.00
7026;BME280;3554;42.132;24.786;2022-09-09T06:03:28;99626.31;;;22.91;100.00
7026;BME280;3554;42.132;24.786;2022-09-09T06:05:58;99621.19;;;22.79;100.00
7026;BME280;3554;42.132;24.786;2022-09-09T06:08:26;99607.41;;;23.04;100.00
7026;BME280;3554;42.132;24.786;2022-09-09T06:11:01;99565.47;;;22.95;100.00
7026;BME280;3554;42.132;24.786;2022-09-09T06:13:29;99608.41;;;23.12;100.00
7026;BME280;3554;42.132;24.786;2022-09-09T06:15:56;99612.47;;;23.37;100.00
7026;BME280;3554;42.132;24.786;2022-09-09T06:18:24;99602.47;;;23.29;100.00
7026;BME280;3554;42.132;24.786;2022-09-09T06:20:55;99617.97;;;23.45;100.00
7026;BME280;3554;42.132;24.786;2022-09-09T06:23:22;99612.78;;;23.63;100.00
7026;BME280;3554;42.132;24.786;2022-09-09T06:25:49;99610.13;;;23.63;100.00
7026;BME280;3554;42.132;24.786;2022-09-09T06:28:18;99557.94;;;23.68;100.00
7026;BME280;3554;42.132;24.786;2022-09-09T06:30:45;99596.94;;;24.09;100.00
7026;BME280;3554;42.132;24.786;2022-09-09T06:33:12;99597.09;;;24.07;100.00
7026;BME280;3554;42.132;24.786;2022-09-09T06:35:39;99605.06;;;23.98;100.00
7026;BME280;3554;42.132;24.786;2022-09-09T06:38:06;99611.72;;;24.13;100.00
7026;BME280;3554;42.132;24.786;2022-09-09T06:40:33;99626.25;;;24.01;100.00
7026;BME280;3554;42.132;24.786;2022-09-09T06:43:00;99610.44;;;23.88;100.00
7026;BME280;3554;42.132;24.786;2022-09-09T06:45:29;99624.66;;;23.89;100.00
7026;BME280;3554;42.132;24.786;2022-09-09T06:47:56;99618.84;;;23.65;100.00
7026;BME280;3554;42.132;24.786;2022-09-09T06:50:23;99601.50;;;23.40;100.00
7026;BME280;3554;42.132;24.786;2022-09-09T06:52:50;99622.66;;;23.91;100.00
7026;BME280;3554;42.132;24.786;2022-09-09T06:55:17;99619.03;;;23.92;100.00
7026;BME280;3554;42.132;24.786;2022-09-09T06:57:44;99631.81;;;23.98;100.00
7026;BME280;3554;42.132;24.786;2022-09-09T07:00:12;99624.41;;;24.11;100.00
7026;BME280;3554;42.132;24.786;2022-09-09T07:02:40;99631.69;;;24.47;100.00
7026;BME280;3554;42.132;24.786;2022-09-09T07:05:08;99621.38;;;24.71;100.00
7026;BME280;3554;42.132;24.786;2022-09-09T07:07:35;99632.56;;;25.03;100.00
7026;BME280;3554;42.132;24.786;2022-09-09T07:10:02;99637.28;;;24.82;100.00
7026;BME280;3554;42.132;24.786;2022-09-09T07:12:30;99639.78;;;24.93;100.00
7026;BME280;3554;42.132;24.786;2022-09-09T07:14:57;99635.63;;;24.53;100.00
7026;BME280;3554;42.132;24.786;2022-09-09T07:17:23;99617.13;;;24.88;100.00
7026;BME280;3554;42.132;24.786;2022-09-09T07:19:51;99629.75;;;25.32;100.00
7026;BME280;3554;42.132;24.786;2022-09-09T07:22:18;99623.41;;;25.33;100.00
7026;BME280;3554;42.132;24.786;2022-09-09T07:24:45;99593.19;;;25.40;100.00
7026;BME280;3554;42.132;24.786;2022-09-09T07:27:12;99642.03;;;25.62;100.00
7026;BME280;3554;42.132;24.786;2022-09-09T07:29:39;99625.66;;;25.37;100.00
7026;BME280;3554;42.132;24.786;2022-09-09T07:32:05;99623.28;;;25.25;100.00
7026;BME280;3554;42.132;24.786;2022-09-09T07:34:32;99627.19;;;25.03;100.00
7026;BME280;3554;42.132;24.786;2022-09-09T07:37:00;99628.72;;;25.42;100.00
7026;BME280;3554;42.132;24.786;2022-09-09T07:39:27;99636.81;;;25.60;100.00
7026;BME280;3554;42.132;24.786;2022-09-09T07:41:55;99624.75;;;25.74;100.00
7026;BME280;3554;42.132;24.786;2022-09-09T07:44:24;99632.69;;;25.83;100.00
7026;BME280;3554;42.132;24.786;2022-09-09T07:46:52;99625.28;;;25.77;100.00
7026;BME280;3554;42.132;24.786;2022-09-09T07:49:19;99617.84;;;25.44;100.00
7026;BME280;3554;42.132;24.786;2022-09-09T07:51:46;99618.84;;;24.79;100.00
7026;BME280;3554;42.132;24.786;2022-09-09T07:54:17;99628.28;;;25.10;100.00
7026;BME280;3554;42.132;24.786;2022-09-09T07:56:46;99620.84;;;25.31;100.00
7026;BME280;3554;42.132;24.786;2022-09-09T07:59:13;99619.75;;;25.79;100.00
7026;BME280;3554;42.132;24.786;2022-09-09T08:01:41;99604.97;;;25.92;100.00
7026;BME280;3554;42.132;24.786;2022-09-09T08:04:10;99608.72;;;25.99;100.00
7026;BME280;3554;42.132;24.786;2022-09-09T08:06:42;99604.94;;;25.30;100.00
7026;BME280;3554;42.132;24.786;2022-09-09T08:09:09;99593.47;;;24.64;100.00
7026;BME280;3554;42.132;24.786;2022-09-09T08:11:38;99598.97;;;24.63;100.00
7026;BME280;3554;42.132;24.786;2022-09-09T08:14:06;99590.69;;;24.47;100.00
7026;BME280;3554;42.132;24.786;2022-09-09T08:16:35;99596.00;;;24.85;100.00
7026;BME280;3554;42.132;24.786;2022-09-09T08:19:04;99595.59;;;25.44;100.00
7026;BME280;3554;42.132;24.786;2022-09-09T08:21:33;99606.41;;;25.87;100.00
7026;BME280;3554;42.132;24.786;2022-09-09T08:24:02;99554.75;;;26.02;100.00
7026;BME280;3554;42.132;24.786;2022-09-09T08:26:31;99600.31;;;26.55;100.00
7026;BME280;3554;42.132;24.786;2022-09-09T08:29:02;99600.31;;;26.55;96.85
7026;BME280;3554;42.132;24.786;2022-09-09T08:31:31;99578.69;;;26.13;100.00
7026;BME280;3554;42.132;24.786;2022-09-09T08:33:59;99578.03;;;26.37;100.00
7026;BME280;3554;42.132;24.786;2022-09-09T08:36:28;99582.66;;;26.53;98.89
7026;BME280;3554;42.132;24.786;2022-09-09T08:38:57;99586.63;;;26.92;95.54
7026;BME280;3554;42.132;24.786;2022-09-09T08:41:38;99586.69;;;26.49;99.42
7026;BME280;3554;42.132;24.786;2022-09-09T08:44:11;99453.00;;;25.66;98.91
7026;BME280;3554;42.132;24.786;2022-09-09T08:46:46;99588.19;;;26.25;97.15
7026;BME280;3554;42.132;24.786;2022-09-09T08:49:36;99585.88;;;26.30;96.79
7026;BME280;3554;42.132;24.786;2022-09-09T08:52:11;99590.41;;;26.30;97.16
7026;BME280;3554;42.132;24.786;2022-09-09T08:54:41;99584.19;;;25.77;100.00
7026;BME280;3554;42.132;24.786;2022-09-09T08:57:11;99583.66;;;25.56;100.00
7026;BME280;3554;42.132;24.786;2022-09-09T08:59:41;99573.53;;;25.85;100.00
7026;BME280;3554;42.132;24.786;2022-09-09T09:02:15;99572.97;;;26.34;98.77
7026;BME280;3554;42.132;24.786;2022-09-09T09:04:54;99581.19;;;26.58;100.00
7026;BME280;3554;42.132;24.786;2022-09-09T09:07:31;99568.22;;;26.28;100.00
7026;BME280;3554;42.132;24.786;2022-09-09T09:10:05;99571.97;;;26.86;99.74
7026;BME280;3554;42.132;24.786;2022-09-09T09:12:40;99569.81;;;26.90;100.00
7026;BME280;3554;42.132;24.786;2022-09-09T09:15:16;99567.19;;;26.72;97.19
7026;BME280;3554;42.132;24.786;2022-09-09T09:17:44;99561.94;;;26.63;98.71
7026;BME280;3554;42.132;24.786;2022-09-09T09:20:12;99555.50;;;26.56;100.00
7026;BME280;3554;42.132;24.786;2022-09-09T09:22:47;99545.28;;;26.59;100.00
7026;BME280;3554;42.132;24.786;2022-09-09T09:25:18;99548.06;;;26.50;98.36
7026;BME280;3554;42.132;24.786;2022-09-09T09:27:52;99539.09;;;26.67;100.00
7026;BME280;3554;42.132;24.786;2022-09-09T09:30:25;99528.00;;;26.62;99.91
7026;BME280;3554;42.132;24.786;2022-09-09T09:32:55;99529.72;;;26.96;99.83
7026;BME280;3554;42.132;24.786;2022-09-09T09:35:22;99525.22;;;27.13;95.98
7026;BME280;3554;42.132;24.786;2022-09-09T09:37:50;99522.34;;;26.98;96.60
7026;BME280;3554;42.132;24.786;2022-09-09T09:40:18;99521.03;;;27.10;95.97
7026;BME280;3554;42.132;24.786;2022-09-09T09:42:51;99526.38;;;27.02;97.43
7026;BME280;3554;42.132;24.786;2022-09-09T09:45:28;99513.97;;;27.09;98.97
7026;BME280;3554;42.132;24.786;2022-09-09T09:48:00;99520.50;;;27.65;97.29
7026;BME280;3554;42.132;24.786;2022-09-09T09:50:29;99513.13;;;27.91;96.92
7026;BME280;3554;42.132;24.786;2022-09-09T09:52:58;99515.00;;;27.82;92.17
7026;BME280;3554;42.132;24.786;2022-09-09T09:55:28;99512.47;;;28.05;90.89
7026;BME280;3554;42.132;24.786;2022-09-09T09:58:01;99513.78;;;27.69;94.42
7026;BME280;3554;42.132;24.786;2022-09-09T10:00:30;99509.72;;;27.40;95.75
7026;BME280;3554;42.132;24.786;2022-09-09T10:02:59;99503.50;;;27.32;98.14
7026;BME280;3554;42.132;24.786;2022-09-09T10:05:28;99503.19;;;27.51;99.75
7026;BME280;3554;42.132;24.786;2022-09-09T10:08:04;99489.22;;;27.72;98.29
7026;BME280;3554;42.132;24.786;2022-09-09T10:10:52;99483.53;;;27.99;96.04
7026;BME280;3554;42.132;24.786;2022-09-09T10:13:29;99487.56;;;27.87;95.88
7026;BME280;3554;42.132;24.786;2022-09-09T10:16:11;99478.63;;;27.46;97.36
7026;BME280;3554;42.132;24.786;2022-09-09T10:18:52;99484.19;;;27.53;98.66
7026;BME280;3554;42.132;24.786;2022-09-09T10:21:32;99462.25;;;27.07;100.00
7026;BME280;3554;42.132;24.786;2022-09-09T10:27:01;99472.56;;;27.52;99.65
7026;BME280;3554;42.132;24.786;2022-09-09T10:29:43;99468.38;;;27.74;100.00
7026;BME280;3554;42.132;24.786;2022-09-09T10:32:45;99480.16;;;27.73;98.11
7026;BME280;3554;42.132;24.786;2022-09-09T10:35:19;99476.97;;;27.53;100.00
7026;BME280;3554;42.132;24.786;2022-09-09T10:38:01;99476.63;;;27.56;100.00
7026;BME280;3554;42.132;24.786;2022-09-09T10:40:33;99473.44;;;27.69;99.43
7026;BME280;3554;42.132;24.786;2022-09-09T10:43:12;99476.00;;;27.94;97.51
7026;BME280;3554;42.132;24.786;2022-09-09T10:45:50;99480.81;;;28.23;97.51
7026;BME280;3554;42.132;24.786;2022-09-09T10:48:31;99474.38;;;28.48;93.36
7026;BME280;3554;42.132;24.786;2022-09-09T10:53:55;99416.03;;;28.16;95.85
7026;BME280;3554;42.132;24.786;2022-09-09T10:56:29;99467.00;;;28.26;94.91
7026;BME280;3554;42.132;24.786;2022-09-09T10:59:00;99459.50;;;28.05;94.04
7026;BME280;3554;42.132;24.786;2022-09-09T11:01:32;99446.19;;;27.80;98.36
7026;BME280;3554;42.132;24.786;2022-09-09T11:04:10;99450.91;;;27.94;97.16
7026;BME280;3554;42.132;24.786;2022-09-09T11:06:42;99455.22;;;28.27;94.81
7026;BME280;3554;42.132;24.786;2022-09-09T11:09:16;99455.66;;;28.46;95.48
7026;BME280;3554;42.132;24.786;2022-09-09T11:11:57;99446.94;;;28.44;91.88
7026;BME280;3554;42.132;24.786;2022-09-09T11:14:30;99444.56;;;28.41;91.13
7026;BME280;3554;42.132;24.786;2022-09-09T11:17:01;99435.81;;;28.47;92.49
7026;BME280;3554;42.132;24.786;2022-09-09T11:19:32;99442.84;;;28.65;92.80
7026;BME280;3554;42.132;24.786;2022-09-09T11:22:02;99446.59;;;28.86;88.74
7026;BME280;3554;42.132;24.786;2022-09-09T11:24:35;99443.41;;;29.21;89.03
7026;BME280;3554;42.132;24.786;2022-09-09T11:27:09;99421.69;;;29.15;85.91
7026;BME280;3554;42.132;24.786;2022-09-09T11:30:04;99426.13;;;29.30;85.10
7026;BME280;3554;42.132;24.786;2022-09-09T11:35:51;99410.25;;;29.35;85.94
7026;BME280;3554;42.132;24.786;2022-09-09T11:38:25;99422.56;;;29.15;84.60
7026;BME280;3554;42.132;24.786;2022-09-09T11:40:58;99411.75;;;28.85;89.56
7026;BME280;3554;42.132;24.786;2022-09-09T11:43:29;99410.88;;;28.92;91.43
7026;BME280;3554;42.132;24.786;2022-09-09T11:45:59;99408.78;;;29.02;85.90
7026;BME280;3554;42.132;24.786;2022-09-09T11:48:33;99403.75;;;28.99;85.41
7026;BME280;3554;42.132;24.786;2022-09-09T11:51:06;99413.25;;;29.40;82.26
7026;BME280;3554;42.132;24.786;2022-09-09T11:53:34;99404.44;;;29.46;81.23
7026;BME280;3554;42.132;24.786;2022-09-09T11:56:11;99398.16;;;29.91;83.77
7026;BME280;3554;42.132;24.786;2022-09-09T11:58:43;99397.97;;;30.66;76.49
7026;BME280;3554;42.132;24.786;2022-09-09T12:01:14;99399.69;;;31.02;73.32
7026;BME280;3554;42.132;24.786;2022-09-09T12:03:45;99365.69;;;30.93;73.55
7026;BME280;3554;42.132;24.786;2022-09-09T12:06:17;99385.84;;;31.12;69.58
7026;BME280;3554;42.132;24.786;2022-09-09T12:08:48;99385.38;;;31.08;69.90
7026;BME280;3554;42.132;24.786;2022-09-09T12:11:24;99379.34;;;31.27;70.13
7026;BME280;3554;42.132;24.786;2022-09-09T12:13:53;99378.72;;;31.25;69.07
7026;BME280;3554;42.132;24.786;2022-09-09T12:16:29;99370.41;;;31.48;68.51
7026;BME280;3554;42.132;24.786;2022-09-09T12:19:14;99362.47;;;31.04;72.63
7026;BME280;3554;42.132;24.786;2022-09-09T12:21:48;99322.56;;;30.71;72.92
7026;BME280;3554;42.132;24.786;2022-09-09T12:24:22;99373.56;;;30.59;78.36
7026;BME280;3554;42.132;24.786;2022-09-09T12:26:56;99367.25;;;30.52;75.58
7026;BME280;3554;42.132;24.786;2022-09-09T12:29:29;99370.78;;;30.52;77.78
7026;BME280;3554;42.132;24.786;2022-09-09T12:32:03;99240.75;;;29.76;76.27
7026;BME280;3554;42.132;24.786;2022-09-09T12:34:38;99354.41;;;30.39;76.64
7026;BME280;3554;42.132;24.786;2022-09-09T12:37:27;99354.66;;;30.59;76.18
7026;BME280;3554;42.132;24.786;2022-09-09T12:39:57;99337.34;;;30.89;75.17
7026;BME280;3554;42.132;24.786;2022-09-09T12:42:25;99339.09;;;31.39;70.35
7026;BME280;3554;42.132;24.786;2022-09-09T12:44:54;99351.97;;;31.86;69.92
7026;BME280;3554;42.132;24.786;2022-09-09T12:47:25;99352.66;;;31.94;69.44
7026;BME280;3554;42.132;24.786;2022-09-09T12:49:53;99338.56;;;31.78;68.04
7026;BME280;3554;42.132;24.786;2022-09-09T12:52:26;99342.31;;;31.49;68.93
7026;BME280;3554;42.132;24.786;2022-09-09T12:54:55;99343.84;;;31.37;68.08
7026;BME280;3554;42.132;24.786;2022-09-09T12:57:24;99321.75;;;31.12;72.57
7026;BME280;3554;42.132;24.786;2022-09-09T13:00:02;99328.59;;;31.08;71.83
7026;BME280;3554;42.132;24.786;2022-09-09T13:02:30;99328.84;;;31.56;67.14
7026;BME280;3554;42.132;24.786;2022-09-09T13:05:06;99330.34;;;31.65;67.97
7026;BME280;3554;42.132;24.786;2022-09-09T13:07:34;99326.41;;;31.95;66.45
7026;BME280;3554;42.132;24.786;2022-09-09T13:10:01;99289.81;;;31.78;67.39
7026;BME280;3554;42.132;24.786;2022-09-09T13:12:28;99325.81;;;31.99;68.16
7026;BME280;3554;42.132;24.786;2022-09-09T13:14:56;99319.56;;;31.99;66.87
7026;BME280;3554;42.132;24.786;2022-09-09T13:17:24;99307.34;;;31.82;66.05
7026;BME280;3554;42.132;24.786;2022-09-09T13:19:54;99312.66;;;31.69;67.13
7026;BME280;3554;42.132;24.786;2022-09-09T13:22:27;99302.69;;;31.69;69.61
7026;BME280;3554;42.132;24.786;2022-09-09T13:25:03;99292.91;;;31.68;67.92
7026;BME280;3554;42.132;24.786;2022-09-09T13:27:31;99284.41;;;30.80;71.27
7026;BME280;3554;42.132;24.786;2022-09-09T13:30:00;99308.00;;;31.07;74.12
7026;BME280;3554;42.132;24.786;2022-09-09T13:32:28;99305.66;;;31.25;72.29